sensor_id;sensor_type;location;lat;lon;timestamp;temperature;humidity
15967;DHT22;15175;48.154;11.534;2022-10-22T00:01:01;15.50;99.90
15967;DHT22;15175;48.154;11.534;2022-10-22T00:03:28;15.50;99.90
15967;DHT22;15175;48.154;11.534;2022-10-22T00:05:55;15.60;99.90
15967;DHT22;15175;48.154;11.534;2022-10-22T00:08:22;15.60;99.90
15967;DHT22;15175;48.154;11.534;2022-10-22T00:10:51;15.60;99.90
15967;DHT22;15175;48.154;11.534;2022-10-22T00:13:19;15.60;99.90
15967;DHT22;15175;48.154;11.534;2022-10-22T00:15:46;15.60;99.90
15967;DHT22;15175;48.154;11.534;2022-10-22T00:18:13;15.60;99.90
15967;DHT22;15175;48.154;11.534;2022-10-22T00:20:40;15.60;99.90
15967;DHT22;15175;48.154;11.534;2022-10-22T00:23:08;15.60;99.90
15967;DHT22;15175;48.154;11.534;2022-10-22T00:25:35;15.60;99.90
15967;DHT22;15175;48.154;11.534;2022-10-22T00:28:03;15.60;99.90
15967;DHT22;15175;48.154;11.534;2022-10-22T00:30:31;15.60;99.90
15967;DHT22;15175;48.154;11.534;2022-10-22T00:32:58;15.60;99.90
15967;DHT22;15175;48.154;11.534;2022-10-22T00:35:25;15.60;99.90
15967;DHT22;15175;48.154;11.534;2022-10-22T00:37:52;15.50;99.90
15967;DHT22;15175;48.154;11.534;2022-10-22T00:40:19;15.50;99.90
15967;DHT22;15175;48.154;11.534;2022-10-22T00:42:46;15.50;99.90
15967;DHT22;15175;48.154;11.534;2022-10-22T00:45:19;15.50;99.90
15967;DHT22;15175;48.154;11.534;2022-10-22T00:47:51;15.40;99.90
15967;DHT22;15175;48.154;11.534;2022-10-22T00:50:23;15.40;99.90
15967;DHT22;15175;48.154;11.534;2022-10-22T00:52:51;15.40;99.90
15967;DHT22;15175;48.154;11.534;2022-10-22T00:55:18;15.40;99.90
15967;DHT22;15175;48.154;11.534;2022-10-22T00:57:46;15.30;99.90
15967;DHT22;15175;48.154;11.534;2022-10-22T01:00:16;15.30;99.90
15967;DHT22;15175;48.154;11.534;2022-10-22T01:02:43;15.20;99.90
15967;DHT22;15175;48.154;11.534;2022-10-22T01:05:11;15.20;99.90
15967;DHT22;15175;48.154;11.534;2022-10-22T01:07:42;15.10;99.90
15967;DHT22;15175;48.154;11.534;2022-10-22T01:10:19;15.10;99.90
15967;DHT22;15175;48.154;11.534;2022-10-22T01:12:53;15.10;99.90
15967;DHT22;15175;48.154;11.534;2022-10-22T01:15:31;15.10;99.90
15967;DHT22;15175;48.154;11.534;2022-10-22T01:18:04;15.10;99.90
15967;DHT22;15175;48.154;11.534;2022-10-22T01:20:45;15.10;99.90
15967;DHT22;15175;48.154;11.534;2022-10-22T01:23:28;15.10;99.90
15967;DHT22;15175;48.154;11.534;2022-10-22T01:26:04;15.10;99.90
15967;DHT22;15175;48.154;11.534;2022-10-22T01:28:51;15.10;99.90
15967;DHT22;15175;48.154;11.534;2022-10-22T01:31:21;15.00;99.90
15967;DHT22;15175;48.154;11.534;2022-10-22T01:33:50;15.00;99.90
15967;DHT22;15175;48.154;11.534;2022-10-22T01:36:19;15.00;99.90
15967;DHT22;15175;48.154;11.534;2022-10-22T01:38:49;15.00;99.90
15967;DHT22;15175;48.154;11.534;2022-10-22T01:41:17;15.00;99.90
15967;DHT22;15175;48.154;11.534;2022-10-22T01:43:46;15.00;99.90
15967;DHT22;15175;48.154;11.534;2022-10-22T01:46:13;15.00;99.90
15967;DHT22;15175;48.154;11.534;2022-10-22T01:48:50;15.00;99.90
15967;DHT22;15175;48.154;11.534;2022-10-22T01:51:29;15.00;99.90
15967;DHT22;15175;48.154;11.534;2022-10-22T01:54:02;15.00;99.90
15967;DHT22;15175;48.154;11.534;2022-10-22T01:56:44;15.00;99.90
15967;DHT22;15175;48.154;11.534;2022-10-22T01:59:18;15.00;99.90
15967;DHT22;15175;48.154;11.534;2022-10-22T02:01:55;15.00;99.90
15967;DHT22;15175;48.154;11.534;2022-10-22T02:04:28;14.90;99.90
15967;DHT22;15175;48.154;11.534;2022-10-22T02:06:59;14.90;99.90
15967;DHT22;15175;48.154;11.534;2022-10-22T02:09:28;14.90;99.90
15967;DHT22;15175;48.154;11.534;2022-10-22T02:11:58;14.90;99.90
15967;DHT22;15175;48.154;11.534;2022-10-22T02:14:29;14.90;99.90
15967;DHT22;15175;48.154;11.534;2022-10-22T02:16:58;14.90;99.90
15967;DHT22;15175;48.154;11.534;2022-10-22T02:19:27;14.90;99.90
15967;DHT22;15175;48.154;11.534;2022-10-22T02:21:55;14.90;99.90
15967;DHT22;15175;48.154;11.534;2022-10-22T02:24:23;14.90;99.90
15967;DHT22;15175;48.154;11.534;2022-10-22T02:26:57;14.90;99.90
15967;DHT22;15175;48.154;11.534;2022-10-22T02:29:35;14.90;99.90
15967;DHT22;15175;48.154;11.534;2022-10-22T02:32:07;14.90;99.90
15967;DHT22;15175;48.154;11.534;2022-10-22T02:34:35;14.80;99.90
15967;DHT22;15175;48.154;11.534;2022-10-22T02:37:02;14.90;99.90
15967;DHT22;15175;48.154;11.534;2022-10-22T02:39:30;14.80;99.90
15967;DHT22;15175;48.154;11.534;2022-10-22T02:42:00;14.80;99.90
15967;DHT22;15175;48.154;11.534;2022-10-22T02:44:27;14.80;99.90
15967;DHT22;15175;48.154;11.534;2022-10-22T02:46:56;14.80;99.90
15967;DHT22;15175;48.154;11.534;2022-10-22T02:49:23;14.80;99.90
15967;DHT22;15175;48.154;11.534;2022-10-22T02:51:51;14.80;99.90
15967;DHT22;15175;48.154;11.534;2022-10-22T02:54:18;14.80;99.90
15967;DHT22;15175;48.154;11.534;2022-10-22T02:56:45;14.80;99.90
15967;DHT22;15175;48.154;11.534;2022-10-22T02:59:12;14.80;99.90
15967;DHT22;15175;48.154;11.534;2022-10-22T03:01:39;14.70;99.90
15967;DHT22;15175;48.154;11.534;2022-10-22T03:04:07;14.70;99.90
15967;DHT22;15175;48.154;11.534;2022-10-22T03:06:34;14.70;99.90
15967;DHT22;15175;48.154;11.534;2022-10-22T03:09:01;14.70;99.90
15967;DHT22;15175;48.154;11.534;2022-10-22T03:11:28;14.70;99.90
15967;DHT22;15175;48.154;11.534;2022-10-22T03:13:55;14.70;99.90
15967;DHT22;15175;48.154;11.534;2022-10-22T03:16:22;14.70;99.90
15967;DHT22;15175;48.154;11.534;2022-10-22T03:18:49;14.70;99.90
15967;DHT22;15175;48.154;11.534;2022-10-22T03:21:27;14.70;99.90
15967;DHT22;15175;48.154;11.534;2022-10-22T03:23:55;14.70;99.90
15967;DHT22;15175;48.154;11.534;2022-10-22T03:26:22;14.70;99.90
15967;DHT22;15175;48.154;11.534;2022-10-22T03:28:50;14.70;99.90
15967;DHT22;15175;48.154;11.534;2022-10-22T03:31:17;14.70;99.90
15967;DHT22;15175;48.154;11.534;2022-10-22T03:33:44;14.60;99.90
15967;DHT22;15175;48.154;11.534;2022-10-22T03:36:11;14.60;99.90
15967;DHT22;15175;48.154;11.534;2022-10-22T03:38:40;14.60;99.90
15967;DHT22;15175;48.154;11.534;2022-10-22T03:41:07;14.60;99.90
15967;DHT22;15175;48.154;11.534;2022-10-22T03:43:36;14.60;99.90
15967;DHT22;15175;48.154;11.534;2022-10-22T03:46:03;14.60;99.90
15967;DHT22;15175;48.154;11.534;2022-10-22T03:48:31;14.50;99.90
15967;DHT22;15175;48.154;11.534;2022-10-22T03:50:58;14.50;99.90
15967;DHT22;15175;48.154;11.534;2022-10-22T03:53:25;14.50;99.90
15967;DHT22;15175;48.154;11.534;2022-10-22T03:55:56;14.50;99.90
15967;DHT22;15175;48.154;11.534;2022-10-22T03:58:23;14.40;99.90
15967;DHT22;15175;48.154;11.534;2022-10-22T04:00:50;14.40;99.90
15967;DHT22;15175;48.154;11.534;2022-10-22T04:03:17;14.30;99.90
15967;DHT22;15175;48.154;11.534;2022-10-22T04:05:44;14.30;99.90
15967;DHT22;15175;48.154;11.534;2022-10-22T04:08:11;14.30;99.90
15967;DHT22;15175;48.154;11.534;2022-10-22T04:10:38;14.30;99.90
15967;DHT22;15175;48.154;11.534;2022-10-22T04:13:07;14.20;99.90
15967;DHT22;15175;48.154;11.534;2022-10-22T04:15:34;14.30;99.90
15967;DHT22;15175;48.154;11.534;2022-10-22T04:18:01;14.30;99.90
15967;DHT22;15175;48.154;11.534;2022-10-22T04:20:28;14.30;99.90
15967;DHT22;15175;48.154;11.534;2022-10-22T04:22:55;14.20;99.90
15967;DHT22;15175;48.154;11.534;2022-10-22T04:25:22;14.20;99.90
15967;DHT22;15175;48.154;11.534;2022-10-22T04:27:49;14.20;99.90
15967;DHT22;15175;48.154;11.534;2022-10-22T04:30:17;14.10;99.90
15967;DHT22;15175;48.154;11.534;2022-10-22T04:32:44;14.10;99.90
15967;DHT22;15175;48.154;11.534;2022-10-22T04:35:11;14.10;99.90
15967;DHT22;15175;48.154;11.534;2022-10-22T04:37:38;14.10;99.90
15967;DHT22;15175;48.154;11.534;2022-10-22T04:40:07;14.00;99.90
15967;DHT22;15175;48.154;11.534;2022-10-22T04:42:34;14.00;99.90
15967;DHT22;15175;48.154;11.534;2022-10-22T04:45:01;14.00;99.90
15967;DHT22;15175;48.154;11.534;2022-10-22T04:47:29;13.90;99.90
15967;DHT22;15175;48.154;11.534;2022-10-22T04:49:57;14.00;99.90
15967;DHT22;15175;48.154;11.534;2022-10-22T04:52:24;14.00;99.90
15967;DHT22;15175;48.154;11.534;2022-10-22T04:54:51;14.00;99.90
15967;DHT22;15175;48.154;11.534;2022-10-22T04:57:18;13.90;99.90
15967;DHT22;15175;48.154;11.534;2022-10-22T04:59:47;13.90;99.90
15967;DHT22;15175;48.154;11.534;2022-10-22T05:02:14;13.90;99.90
15967;DHT22;15175;48.154;11.534;2022-10-22T05:04:44;13.80;99.90
15967;DHT22;15175;48.154;11.534;2022-10-22T05:07:11;13.90;99.90
15967;DHT22;15175;48.154;11.534;2022-10-22T05:09:38;13.90;99.90
15967;DHT22;15175;48.154;11.534;2022-10-22T05:12:05;13.80;99.90
15967;DHT22;15175;48.154;11.534;2022-10-22T05:14:32;13.80;99.90
15967;DHT22;15175;48.154;11.534;2022-10-22T05:17:00;13.80;99.90
15967;DHT22;15175;48.154;11.534;2022-10-22T05:19:29;13.80;99.90
15967;DHT22;15175;48.154;11.534;2022-10-22T05:21:59;13.70;99.90
15967;DHT22;15175;48.154;11.534;2022-10-22T05:24:27;13.70;99.90
15967;DHT22;15175;48.154;11.534;2022-10-22T05:26:56;13.70;99.90
15967;DHT22;15175;48.154;11.534;2022-10-22T05:29:23;13.70;99.90
15967;DHT22;15175;48.154;11.534;2022-10-22T05:31:51;13.70;99.90
15967;DHT22;15175;48.154;11.534;2022-10-22T05:34:18;13.70;99.90
15967;DHT22;15175;48.154;11.534;2022-10-22T05:36:46;13.70;99.90
15967;DHT22;15175;48.154;11.534;2022-10-22T05:39:14;13.60;99.90
15967;DHT22;15175;48.154;11.534;2022-10-22T05:41:41;13.70;99.90
15967;DHT22;15175;48.154;11.534;2022-10-22T05:44:10;13.70;99.90
15967;DHT22;15175;48.154;11.534;2022-10-22T05:46:38;13.70;99.90
15967;DHT22;15175;48.154;11.534;2022-10-22T05:49:05;13.70;99.90
15967;DHT22;15175;48.154;11.534;2022-10-22T05:51:34;13.70;99.90
15967;DHT22;15175;48.154;11.534;2022-10-22T05:54:04;13.70;99.90
15967;DHT22;15175;48.154;11.534;2022-10-22T05:56:34;13.70;99.90
15967;DHT22;15175;48.154;11.534;2022-10-22T05:59:02;13.70;99.90
15967;DHT22;15175;48.154;11.534;2022-10-22T06:01:31;13.70;99.90
15967;DHT22;15175;48.154;11.534;2022-10-22T06:04:01;13.70;99.90
15967;DHT22;15175;48.154;11.534;2022-10-22T06:06:32;13.70;99.90
15967;DHT22;15175;48.154;11.534;2022-10-22T06:09:02;13.80;99.90
15967;DHT22;15175;48.154;11.534;2022-10-22T06:11:29;13.80;99.90
15967;DHT22;15175;48.154;11.534;2022-10-22T06:13:58;13.80;99.90
15967;DHT22;15175;48.154;11.534;2022-10-22T06:16:27;13.80;99.90
15967;DHT22;15175;48.154;11.534;2022-10-22T06:18:54;13.80;99.90
15967;DHT22;15175;48.154;11.534;2022-10-22T06:21:22;13.80;99.90
15967;DHT22;15175;48.154;11.534;2022-10-22T06:23:49;13.90;99.90
15967;DHT22;15175;48.154;11.534;2022-10-22T06:26:16;13.80;99.90
15967;DHT22;15175;48.154;11.534;2022-10-22T06:28:43;13.90;99.90
15967;DHT22;15175;48.154;11.534;2022-10-22T06:31:11;13.90;99.90
15967;DHT22;15175;48.154;11.534;2022-10-22T06:33:41;13.90;99.90
15967;DHT22;15175;48.154;11.534;2022-10-22T06:36:10;13.90;99.90
15967;DHT22;15175;48.154;11.534;2022-10-22T06:38:38;13.90;99.90
15967;DHT22;15175;48.154;11.534;2022-10-22T06:41:09;13.90;99.90
15967;DHT22;15175;48.154;11.534;2022-10-22T06:43:36;13.90;99.90
15967;DHT22;15175;48.154;11.534;2022-10-22T06:46:05;13.90;99.90
15967;DHT22;15175;48.154;11.534;2022-10-22T06:48:35;13.90;99.90
15967;DHT22;15175;48.154;11.534;2022-10-22T06:51:04;13.80;99.90
15967;DHT22;15175;48.154;11.534;2022-10-22T06:53:31;13.80;99.90
15967;DHT22;15175;48.154;11.534;2022-10-22T06:56:03;13.80;99.90
15967;DHT22;15175;48.154;11.534;2022-10-22T06:58:30;13.80;99.90
15967;DHT22;15175;48.154;11.534;2022-10-22T07:01:01;13.70;99.90
15967;DHT22;15175;48.154;11.534;2022-10-22T07:03:29;13.70;99.90
15967;DHT22;15175;48.154;11.534;2022-10-22T07:06:04;13.80;99.90
15967;DHT22;15175;48.154;11.534;2022-10-22T07:08:32;13.80;99.90
15967;DHT22;15175;48.154;11.534;2022-10-22T07:11:06;13.90;99.90
15967;DHT22;15175;48.154;11.534;2022-10-22T07:13:34;13.90;99.90
15967;DHT22;15175;48.154;11.534;2022-10-22T07:16:01;14.00;99.90
15967;DHT22;15175;48.154;11.534;2022-10-22T07:18:28;14.00;99.90
15967;DHT22;15175;48.154;11.534;2022-10-22T07:20:55;14.00;99.90
15967;DHT22;15175;48.154;11.534;2022-10-22T07:23:24;14.10;99.90
15967;DHT22;15175;48.154;11.534;2022-10-22T07:25:51;14.10;99.90
15967;DHT22;15175;48.154;11.534;2022-10-22T07:28:18;14.10;99.90
15967;DHT22;15175;48.154;11.534;2022-10-22T07:30:46;14.10;99.90
15967;DHT22;15175;48.154;11.534;2022-10-22T07:33:13;14.10;99.90
15967;DHT22;15175;48.154;11.534;2022-10-22T07:35:41;14.10;99.90
15967;DHT22;15175;48.154;11.534;2022-10-22T07:38:08;14.10;99.90
15967;DHT22;15175;48.154;11.534;2022-10-22T07:40:37;14.20;99.90
15967;DHT22;15175;48.154;11.534;2022-10-22T07:43:05;14.20;99.90
15967;DHT22;15175;48.154;11.534;2022-10-22T07:45:32;14.20;99.90
15967;DHT22;15175;48.154;11.534;2022-10-22T07:47:59;14.20;99.90
15967;DHT22;15175;48.154;11.534;2022-10-22T07:50:27;14.20;99.90
15967;DHT22;15175;48.154;11.534;2022-10-22T07:52:54;14.20;99.90
15967;DHT22;15175;48.154;11.534;2022-10-22T07:55:21;14.20;99.90
15967;DHT22;15175;48.154;11.534;2022-10-22T07:57:50;14.30;99.90
15967;DHT22;15175;48.154;11.534;2022-10-22T08:00:17;14.30;99.90
15967;DHT22;15175;48.154;11.534;2022-10-22T08:02:44;14.30;99.90
15967;DHT22;15175;48.154;11.534;2022-10-22T08:05:11;14.30;99.90
15967;DHT22;15175;48.154;11.534;2022-10-22T08:07:39;14.30;99.90
15967;DHT22;15175;48.154;11.534;2022-10-22T08:10:07;14.30;99.90
15967;DHT22;15175;48.154;11.534;2022-10-22T08:12:35;14.30;99.90
15967;DHT22;15175;48.154;11.534;2022-10-22T08:15:04;14.30;99.90
15967;DHT22;15175;48.154;11.534;2022-10-22T08:17:31;14.40;99.90
15967;DHT22;15175;48.154;11.534;2022-10-22T08:19:58;14.40;99.90
15967;DHT22;15175;48.154;11.534;2022-10-22T08:22:25;14.50;99.90
15967;DHT22;15175;48.154;11.534;2022-10-22T08:24:52;14.50;99.90
15967;DHT22;15175;48.154;11.534;2022-10-22T08:27:19;14.60;99.90
15967;DHT22;15175;48.154;11.534;2022-10-22T08:29:46;14.60;99.90
15967;DHT22;15175;48.154;11.534;2022-10-22T08:32:15;14.60;99.90
15967;DHT22;15175;48.154;11.534;2022-10-22T08:34:42;14.70;99.90
15967;DHT22;15175;48.154;11.534;2022-10-22T08:37:09;14.70;99.90
15967;DHT22;15175;48.154;11.534;2022-10-22T08:39:39;14.70;99.90
15967;DHT22;15175;48.154;11.534;2022-10-22T08:42:31;14.70;99.90
15967;DHT22;15175;48.154;11.534;2022-10-22T08:45:09;14.70;99.90
15967;DHT22;15175;48.154;11.534;2022-10-22T08:48:04;14.70;99.90
15967;DHT22;15175;48.154;11.534;2022-10-22T08:50:36;14.80;99.90
15967;DHT22;15175;48.154;11.534;2022-10-22T08:53:10;14.80;99.90
15967;DHT22;15175;48.154;11.534;2022-10-22T08:55:38;14.80;99.90
15967;DHT22;15175;48.154;11.534;2022-10-22T08:58:13;14.80;99.90
15967;DHT22;15175;48.154;11.534;2022-10-22T09:00:49;14.80;99.90
15967;DHT22;15175;48.154;11.534;2022-10-22T09:03:31;14.80;99.90
15967;DHT22;15175;48.154;11.534;2022-10-22T09:06:07;14.70;99.90
15967;DHT22;15175;48.154;11.534;2022-10-22T09:08:36;14.70;99.90
15967;DHT22;15175;48.154;11.534;2022-10-22T09:11:13;14.70;99.90
15967;DHT22;15175;48.154;11.534;2022-10-22T09:13:43;14.70;99.90
15967;DHT22;15175;48.154;11.534;2022-10-22T09:16:16;14.80;99.90
15967;DHT22;15175;48.154;11.534;2022-10-22T09:18:51;14.90;99.90
15967;DHT22;15175;48.154;11.534;2022-10-22T09:21:28;14.90;99.90
15967;DHT22;15175;48.154;11.534;2022-10-22T09:24:05;15.00;99.90
15967;DHT22;15175;48.154;11.534;2022-10-22T09:26:38;15.00;99.90
15967;DHT22;15175;48.154;11.534;2022-10-22T09:29:08;15.10;99.90
15967;DHT22;15175;48.154;11.534;2022-10-22T09:31:39;15.10;99.90
15967;DHT22;15175;48.154;11.534;2022-10-22T09:34:08;15.10;99.90
15967;DHT22;15175;48.154;11.534;2022-10-22T09:36:37;15.20;99.90
15967;DHT22;15175;48.154;11.534;2022-10-22T09:39:04;15.20;99.90
15967;DHT22;15175;48.154;11.534;2022-10-22T09:41:46;15.20;99.90
15967;DHT22;15175;48.154;11.534;2022-10-22T09:44:13;15.10;99.90
15967;DHT22;15175;48.154;11.534;2022-10-22T09:46:40;15.20;99.90
15967;DHT22;15175;48.154;11.534;2022-10-22T09:49:13;15.20;99.90
15967;DHT22;15175;48.154;11.534;2022-10-22T09:51:48;15.10;99.90
15967;DHT22;15175;48.154;11.534;2022-10-22T09:54:18;15.10;99.90
15967;DHT22;15175;48.154;11.534;2022-10-22T09:56:51;15.20;99.90
15967;DHT22;15175;48.154;11.534;2022-10-22T09:59:26;15.20;99.90
15967;DHT22;15175;48.154;11.534;2022-10-22T10:02:05;15.20;99.90
15967;DHT22;15175;48.154;11.534;2022-10-22T10:04:39;15.20;99.90
15967;DHT22;15175;48.154;11.534;2022-10-22T10:07:15;15.20;99.90
15967;DHT22;15175;48.154;11.534;2022-10-22T10:09:43;15.20;99.90
15967;DHT22;15175;48.154;11.534;2022-10-22T10:12:19;15.20;99.90
15967;DHT22;15175;48.154;11.534;2022-10-22T10:14:55;15.30;99.90
15967;DHT22;15175;48.154;11.534;2022-10-22T10:17:31;15.30;99.90
15967;DHT22;15175;48.154;11.534;2022-10-22T10:20:13;15.30;99.90
15967;DHT22;15175;48.154;11.534;2022-10-22T10:22:50;15.40;99.90
15967;DHT22;15175;48.154;11.534;2022-10-22T10:25:41;15.40;99.90
15967;DHT22;15175;48.154;11.534;2022-10-22T10:31:11;15.50;99.90
15967;DHT22;15175;48.154;11.534;2022-10-22T10:33:47;15.50;99.90
15967;DHT22;15175;48.154;11.534;2022-10-22T10:36:25;15.60;99.90
15967;DHT22;15175;48.154;11.534;2022-10-22T10:38:56;15.60;99.90
15967;DHT22;15175;48.154;11.534;2022-10-22T10:41:32;15.60;99.90
15967;DHT22;15175;48.154;11.534;2022-10-22T10:44:36;15.70;99.90
15967;DHT22;15175;48.154;11.534;2022-10-22T10:47:13;15.70;99.90
15967;DHT22;15175;48.154;11.534;2022-10-22T10:49:42;15.70;99.90
15967;DHT22;15175;48.154;11.534;2022-10-22T10:52:17;15.80;99.90
15967;DHT22;15175;48.154;11.534;2022-10-22T10:54:53;15.80;99.90
15967;DHT22;15175;48.154;11.534;2022-10-22T10:57:33;15.90;99.90
15967;DHT22;15175;48.154;11.534;2022-10-22T11:00:07;16.00;99.90
15967;DHT22;15175;48.154;11.534;2022-10-22T11:05:36;16.20;99.90
15967;DHT22;15175;48.154;11.534;2022-10-22T11:08:11;16.20;99.90
15967;DHT22;15175;48.154;11.534;2022-10-22T11:10:43;16.30;99.90
15967;DHT22;15175;48.154;11.534;2022-10-22T11:13:16;16.30;99.90
15967;DHT22;15175;48.154;11.534;2022-10-22T11:15:47;16.30;99.90
15967;DHT22;15175;48.154;11.534;2022-10-22T11:18:21;16.40;99.90
15967;DHT22;15175;48.154;11.534;2022-10-22T11:21:16;16.50;99.90
15967;DHT22;15175;48.154;11.534;2022-10-22T11:23:49;16.50;99.90
15967;DHT22;15175;48.154;11.534;2022-10-22T11:26:36;16.50;99.90
15967;DHT22;15175;48.154;11.534;2022-10-22T11:29:08;16.50;99.90
15967;DHT22;15175;48.154;11.534;2022-10-22T11:31:37;16.50;99.90
15967;DHT22;15175;48.154;11.534;2022-10-22T11:34:13;16.50;99.90
15967;DHT22;15175;48.154;11.534;2022-10-22T11:36:42;16.50;99.90
15967;DHT22;15175;48.154;11.534;2022-10-22T11:39:30;16.60;99.90
15967;DHT22;15175;48.154;11.534;2022-10-22T11:41:58;16.70;99.90
15967;DHT22;15175;48.154;11.534;2022-10-22T11:44:27;16.80;99.90
15967;DHT22;15175;48.154;11.534;2022-10-22T11:46:57;16.80;99.90
15967;DHT22;15175;48.154;11.534;2022-10-22T11:49:26;16.80;99.90
15967;DHT22;15175;48.154;11.534;2022-10-22T11:52:20;16.90;99.90
15967;DHT22;15175;48.154;11.534;2022-10-22T11:54:53;16.90;99.90
15967;DHT22;15175;48.154;11.534;2022-10-22T11:57:25;16.90;99.90
15967;DHT22;15175;48.154;11.534;2022-10-22T11:59:56;17.00;99.90
15967;DHT22;15175;48.154;11.534;2022-10-22T12:02:42;17.10;99.90
15967;DHT22;15175;48.154;11.534;2022-10-22T12:05:36;17.10;99.90
15967;DHT22;15175;48.154;11.534;2022-10-22T12:08:19;17.20;99.90
15967;DHT22;15175;48.154;11.534;2022-10-22T12:11:04;17.20;99.90
15967;DHT22;15175;48.154;11.534;2022-10-22T12:13:50;17.30;99.90
15967;DHT22;15175;48.154;11.534;2022-10-22T12:16:21;17.30;99.90
15967;DHT22;15175;48.154;11.534;2022-10-22T12:18:56;17.40;99.90
15967;DHT22;15175;48.154;11.534;2022-10-22T12:21:24;17.40;99.90
15967;DHT22;15175;48.154;11.534;2022-10-22T12:23:51;17.40;99.90
15967;DHT22;15175;48.154;11.534;2022-10-22T12:26:25;17.40;99.90
15967;DHT22;15175;48.154;11.534;2022-10-22T12:28:56;17.40;99.90
15967;DHT22;15175;48.154;11.534;2022-10-22T12:31:24;17.50;99.90
15967;DHT22;15175;48.154;11.534;2022-10-22T12:33:58;17.60;99.90
15967;DHT22;15175;48.154;11.534;2022-10-22T12:36:25;17.70;99.90
15967;DHT22;15175;48.154;11.534;2022-10-22T12:38:53;17.80;99.90
15967;DHT22;15175;48.154;11.534;2022-10-22T12:41:20;17.90;99.90
15967;DHT22;15175;48.154;11.534;2022-10-22T12:43:57;18.10;99.90
15967;DHT22;15175;48.154;11.534;2022-10-22T12:46:26;18.30;99.90
15967;DHT22;15175;48.154;11.534;2022-10-22T12:48:54;18.50;99.90
15967;DHT22;15175;48.154;11.534;2022-10-22T12:51:24;18.60;99.90
15967;DHT22;15175;48.154;11.534;2022-10-22T12:53:52;18.80;99.90
15967;DHT22;15175;48.154;11.534;2022-10-22T12:56:22;18.90;99.90
15967;DHT22;15175;48.154;11.534;2022-10-22T12:58:55;19.10;99.90
15967;DHT22;15175;48.154;11.534;2022-10-22T13:01:26;19.20;99.90
15967;DHT22;15175;48.154;11.534;2022-10-22T13:04:05;19.20;99.90
15967;DHT22;15175;48.154;11.534;2022-10-22T13:06:34;19.40;99.90
15967;DHT22;15175;48.154;11.534;2022-10-22T13:09:13;19.50;99.90
15967;DHT22;15175;48.154;11.534;2022-10-22T13:11:50;19.70;99.90
15967;DHT22;15175;48.154;11.534;2022-10-22T13:14:26;19.80;99.90
15967;DHT22;15175;48.154;11.534;2022-10-22T13:17:08;20.00;99.90
15967;DHT22;15175;48.154;11.534;2022-10-22T13:19:39;20.10;99.90
15967;DHT22;15175;48.154;11.534;2022-10-22T13:22:24;20.10;99.90
15967;DHT22;15175;48.154;11.534;2022-10-22T13:24:52;20.20;99.90
15967;DHT22;15175;48.154;11.534;2022-10-22T13:27:21;20.30;99.90
15967;DHT22;15175;48.154;11.534;2022-10-22T13:29:49;20.30;99.90
15967;DHT22;15175;48.154;11.534;2022-10-22T13:32:27;20.40;99.90
15967;DHT22;15175;48.154;11.534;2022-10-22T13:34:58;20.40;99.90
15967;DHT22;15175;48.154;11.534;2022-10-22T13:37:28;20.50;99.90
15967;DHT22;15175;48.154;11.534;2022-10-22T13:39:57;20.60;99.90
15967;DHT22;15175;48.154;11.534;2022-10-22T13:42:24;20.70;99.90
15967;DHT22;15175;48.154;11.534;2022-10-22T13:44:52;20.70;99.90
15967;DHT22;15175;48.154;11.534;2022-10-22T13:47:25;20.70;99.90
15967;DHT22;15175;48.154;11.534;2022-10-22T13:49:55;20.70;99.90
15967;DHT22;15175;48.154;11.534;2022-10-22T13:52:28;20.70;99.90
15967;DHT22;15175;48.154;11.534;2022-10-22T13:54:57;20.80;99.90
15967;DHT22;15175;48.154;11.534;2022-10-22T13:57:24;20.80;99.90
15967;DHT22;15175;48.154;11.534;2022-10-22T13:59:52;20.70;99.90
15967;DHT22;15175;48.154;11.534;2022-10-22T14:02:19;20.60;99.90
15967;DHT22;15175;48.154;11.534;2022-10-22T14:04:49;20.50;99.90
15967;DHT22;15175;48.154;11.534;2022-10-22T14:07:17;20.40;99.90
15967;DHT22;15175;48.154;11.534;2022-10-22T14:09:44;20.40;99.90
15967;DHT22;15175;48.154;11.534;2022-10-22T14:12:13;20.20;99.90
15967;DHT22;15175;48.154;11.534;2022-10-22T14:14:40;20.10;99.90
15967;DHT22;15175;48.154;11.534;2022-10-22T14:17:14;20.10;99.90
15967;DHT22;15175;48.154;11.534;2022-10-22T14:19:43;20.00;99.90
15967;DHT22;15175;48.154;11.534;2022-10-22T14:22:15;19.90;99.90
15967;DHT22;15175;48.154;11.534;2022-10-22T14:24:44;19.80;99.90
15967;DHT22;15175;48.154;11.534;2022-10-22T14:27:12;19.70;99.90
15967;DHT22;15175;48.154;11.534;2022-10-22T14:29:40;19.70;99.90
15967;DHT22;15175;48.154;11.534;2022-10-22T14:32:14;19.60;99.90
15967;DHT22;15175;48.154;11.534;2022-10-22T14:34:42;19.70;99.90
15967;DHT22;15175;48.154;11.534;2022-10-22T14:37:16;19.70;99.90
15967;DHT22;15175;48.154;11.534;2022-10-22T14:39:44;19.60;99.90
15967;DHT22;15175;48.154;11.534;2022-10-22T14:42:17;19.50;99.90
15967;DHT22;15175;48.154;11.534;2022-10-22T14:44:44;19.40;99.90
15967;DHT22;15175;48.154;11.534;2022-10-22T14:47:13;19.40;99.90
15967;DHT22;15175;48.154;11.534;2022-10-22T14:49:40;19.40;99.90
15967;DHT22;15175;48.154;11.534;2022-10-22T14:52:07;19.30;99.90
15967;DHT22;15175;48.154;11.534;2022-10-22T14:54:34;19.20;99.90
15967;DHT22;15175;48.154;11.534;2022-10-22T14:57:01;19.20;99.90
15967;DHT22;15175;48.154;11.534;2022-10-22T14:59:29;19.10;99.90
15967;DHT22;15175;48.154;11.534;2022-10-22T15:01:56;19.10;99.90
15967;DHT22;15175;48.154;11.534;2022-10-22T15:04:24;19.10;99.90
15967;DHT22;15175;48.154;11.534;2022-10-22T15:06:52;19.00;99.90
15967;DHT22;15175;48.154;11.534;2022-10-22T15:09:22;19.00;99.90
15967;DHT22;15175;48.154;11.534;2022-10-22T15:11:49;19.00;99.90
15967;DHT22;15175;48.154;11.534;2022-10-22T15:14:16;18.90;99.90
15967;DHT22;15175;48.154;11.534;2022-10-22T15:16:43;18.90;99.90
15967;DHT22;15175;48.154;11.534;2022-10-22T15:19:10;18.90;99.90
15967;DHT22;15175;48.154;11.534;2022-10-22T15:21:39;18.90;99.90
15967;DHT22;15175;48.154;11.534;2022-10-22T15:24:06;18.90;99.90
15967;DHT22;15175;48.154;11.534;2022-10-22T15:26:33;18.80;99.90
15967;DHT22;15175;48.154;11.534;2022-10-22T15:29:01;18.80;99.90
15967;DHT22;15175;48.154;11.534;2022-10-22T15:31:44;18.80;99.90
15967;DHT22;15175;48.154;11.534;2022-10-22T15:34:12;18.80;99.90
15967;DHT22;15175;48.154;11.534;2022-10-22T15:36:40;18.70;99.90
15967;DHT22;15175;48.154;11.534;2022-10-22T15:39:08;18.70;99.90
15967;DHT22;15175;48.154;11.534;2022-10-22T15:41:36;18.70;99.90